sensor_id;sensor_type;location;lat;lon;timestamp;pressure;altitude;pressure_sealevel;temperature;humidity
76590;BME280;65471;55.908;37.880;2023-04-03T00:00:51;99558.00;;;5.07;88.32
76590;BME280;65471;55.908;37.880;2023-04-03T00:03:18;99560.91;;;5.06;88.53
76590;BME280;65471;55.908;37.880;2023-04-03T00:05:46;99560.28;;;5.04;88.50
76590;BME280;65471;55.908;37.880;2023-04-03T00:08:14;99558.22;;;5.06;88.63
76590;BME280;65471;55.908;37.880;2023-04-03T00:10:41;99560.09;;;5.05;88.13
76590;BME280;65471;55.908;37.880;2023-04-03T00:13:08;99554.13;;;5.03;88.09
76590;BME280;65471;55.908;37.880;2023-04-03T00:15:36;99560.28;;;5.04;88.59
76590;BME280;65471;55.908;37.880;2023-04-03T00:18:03;99555.75;;;5.04;88.45
76590;BME280;65471;55.908;37.880;2023-04-03T00:20:30;99563.97;;;5.03;88.44
76590;BME280;65471;55.908;37.880;2023-04-03T00:22:57;99562.16;;;5.03;88.39
76590;BME280;65471;55.908;37.880;2023-04-03T00:25:24;99564.81;;;5.03;88.38
76590;BME280;65471;55.908;37.880;2023-04-03T00:27:51;99565.66;;;5.04;88.47
76590;BME280;65471;55.908;37.880;2023-04-03T00:30:19;99558.22;;;5.06;88.55
76590;BME280;65471;55.908;37.880;2023-04-03T00:32:50;99560.50;;;5.02;88.67
76590;BME280;65471;55.908;37.880;2023-04-03T00:35:19;99559.44;;;4.96;88.64
76590;BME280;65471;55.908;37.880;2023-04-03T00:37:46;99550.75;;;4.94;88.62
76590;BME280;65471;55.908;37.880;2023-04-03T00:40:14;99560.88;;;4.92;88.93
76590;BME280;65471;55.908;37.880;2023-04-03T00:42:43;99561.88;;;4.91;88.65
76590;BME280;65471;55.908;37.880;2023-04-03T00:47:38;99564.78;;;4.96;88.75
76590;BME280;65471;55.908;37.880;2023-04-03T00:50:07;99565.00;;;4.95;88.50
76590;BME280;65471;55.908;37.880;2023-04-03T00:52:34;99569.31;;;4.96;88.67
76590;BME280;65471;55.908;37.880;2023-04-03T00:55:04;99563.13;;;4.95;88.78
76590;BME280;65471;55.908;37.880;2023-04-03T00:57:32;99558.78;;;4.94;88.67
76590;BME280;65471;55.908;37.880;2023-04-03T01:00:05;99560.88;;;4.92;88.41
76590;BME280;65471;55.908;37.880;2023-04-03T01:02:33;99571.56;;;4.92;88.55
76590;BME280;65471;55.908;37.880;2023-04-03T01:05:00;99570.56;;;4.93;88.89
76590;BME280;65471;55.908;37.880;2023-04-03T01:07:31;99568.09;;;4.92;88.66
76590;BME280;65471;55.908;37.880;2023-04-03T01:10:02;99566.41;;;4.91;88.64
76590;BME280;65471;55.908;37.880;2023-04-03T01:12:33;99560.88;;;4.92;88.94
76590;BME280;65471;55.908;37.880;2023-04-03T01:15:25;99559.44;;;4.96;88.85
76590;BME280;65471;55.908;37.880;2023-04-03T01:17:54;99562.94;;;4.97;88.86
76590;BME280;65471;55.908;37.880;2023-04-03T01:25:42;99567.03;;;4.86;88.81
76590;BME280;65471;55.908;37.880;2023-04-03T01:28:23;99564.56;;;4.84;88.66
76590;BME280;65471;55.908;37.880;2023-04-03T01:33:39;99563.50;;;4.86;89.04
76590;BME280;65471;55.908;37.880;2023-04-03T01:36:07;99559.00;;;4.86;88.92
76590;BME280;65471;55.908;37.880;2023-04-03T01:38:34;99558.53;;;4.82;89.01
76590;BME280;65471;55.908;37.880;2023-04-03T01:41:01;99559.97;;;4.78;88.95
76590;BME280;65471;55.908;37.880;2023-04-03T01:43:28;99564.06;;;4.74;88.81
76590;BME280;65471;55.908;37.880;2023-04-03T01:45:54;99558.09;;;4.72;88.63
76590;BME280;65471;55.908;37.880;2023-04-03T01:48:22;99558.28;;;4.71;88.88
76590;BME280;65471;55.908;37.880;2023-04-03T01:50:49;99558.50;;;4.69;89.19
76590;BME280;65471;55.908;37.880;2023-04-03T01:53:16;99564.88;;;4.68;88.90
76590;BME280;65471;55.908;37.880;2023-04-03T01:55:42;99560.34;;;4.69;89.00
76590;BME280;65471;55.908;37.880;2023-04-03T01:58:10;99559.72;;;4.66;88.84
76590;BME280;65471;55.908;37.880;2023-04-03T02:00:36;99563.22;;;4.67;89.14
76590;BME280;65471;55.908;37.880;2023-04-03T02:03:04;99564.25;;;4.66;88.79
76590;BME280;65471;55.908;37.880;2023-04-03T02:05:30;99552.91;;;4.64;88.91
76590;BME280;65471;55.908;37.880;2023-04-03T02:07:57;99567.50;;;4.61;88.85
76590;BME280;65471;55.908;37.880;2023-04-03T02:10:24;99570.38;;;4.60;88.90
76590;BME280;65471;55.908;37.880;2023-04-03T02:12:52;99569.78;;;4.58;88.83
76590;BME280;65471;55.908;37.880;2023-04-03T02:15:19;99569.97;;;4.56;89.00
76590;BME280;65471;55.908;37.880;2023-04-03T02:17:46;99569.97;;;4.56;88.76
76590;BME280;65471;55.908;37.880;2023-04-03T02:20:13;99558.63;;;4.54;89.27
76590;BME280;65471;55.908;37.880;2023-04-03T02:22:40;99564.41;;;4.58;88.92
76590;BME280;65471;55.908;37.880;2023-04-03T02:25:07;99565.44;;;4.57;89.18
76590;BME280;65471;55.908;37.880;2023-04-03T02:27:34;99568.09;;;4.57;89.09
76590;BME280;65471;55.908;37.880;2023-04-03T02:30:02;99570.16;;;4.55;89.33
76590;BME280;65471;55.908;37.880;2023-04-03T02:32:29;99566.22;;;4.51;89.38
76590;BME280;65471;55.908;37.880;2023-04-03T02:34:56;99563.75;;;4.49;89.20
76590;BME280;65471;55.908;37.880;2023-04-03T02:37:24;99565.97;;;4.45;89.06
76590;BME280;65471;55.908;37.880;2023-04-03T02:39:51;99560.00;;;4.43;88.99
76590;BME280;65471;55.908;37.880;2023-04-03T02:42:17;99573.41;;;4.43;88.78
76590;BME280;65471;55.908;37.880;2023-04-03T02:44:44;99567.41;;;4.41;88.93
76590;BME280;65471;55.908;37.880;2023-04-03T02:47:11;99574.81;;;4.39;89.21
76590;BME280;65471;55.908;37.880;2023-04-03T02:49:38;99564.50;;;4.36;88.71
76590;BME280;65471;55.908;37.880;2023-04-03T02:52:04;99578.91;;;4.35;88.80
76590;BME280;65471;55.908;37.880;2023-04-03T02:54:31;99571.88;;;4.34;89.10
76590;BME280;65471;55.908;37.880;2023-04-03T02:56:58;99578.06;;;4.35;89.16
76590;BME280;65471;55.908;37.880;2023-04-03T02:59:25;99581.97;;;4.32;88.95
76590;BME280;65471;55.908;37.880;2023-04-03T03:01:52;99576.97;;;4.29;89.08
76590;BME280;65471;55.908;37.880;2023-04-03T03:04:19;99580.91;;;4.26;89.14
76590;BME280;65471;55.908;37.880;2023-04-03T03:06:46;99574.28;;;4.22;88.78
76590;BME280;65471;55.908;37.880;2023-04-03T03:09:13;99580.84;;;4.20;88.90
76590;BME280;65471;55.908;37.880;2023-04-03T03:11:41;99588.25;;;4.18;89.15
76590;BME280;65471;55.908;37.880;2023-04-03T03:14:07;99582.25;;;4.15;88.92
76590;BME280;65471;55.908;37.880;2023-04-03T03:16:34;99586.78;;;4.15;89.25
76590;BME280;65471;55.908;37.880;2023-04-03T03:19:01;99581.63;;;4.13;89.27
76590;BME280;65471;55.908;37.880;2023-04-03T03:21:28;99595.38;;;4.10;88.99
76590;BME280;65471;55.908;37.880;2023-04-03T03:23:55;99591.06;;;4.09;89.04
76590;BME280;65471;55.908;37.880;2023-04-03T03:26:22;99597.44;;;4.08;88.99
76590;BME280;65471;55.908;37.880;2023-04-03T03:28:48;99598.44;;;4.07;88.76
76590;BME280;65471;55.908;37.880;2023-04-03T03:31:15;99602.97;;;4.07;88.87
76590;BME280;65471;55.908;37.880;2023-04-03T03:33:42;99599.47;;;4.06;89.25
76590;BME280;65471;55.908;37.880;2023-04-03T03:36:09;99598.03;;;4.04;89.00
76590;BME280;65471;55.908;37.880;2023-04-03T03:38:37;99601.91;;;4.01;89.18
76590;BME280;65471;55.908;37.880;2023-04-03T03:41:04;99601.91;;;4.01;89.01
76590;BME280;65471;55.908;37.880;2023-04-03T03:43:30;99601.09;;;4.01;89.50
76590;BME280;65471;55.908;37.880;2023-04-03T03:45:57;99598.41;;;4.01;88.96
76590;BME280;65471;55.908;37.880;2023-04-03T03:48:24;99604.78;;;4.00;89.43
76590;BME280;65471;55.908;37.880;2023-04-03T03:50:51;99598.41;;;4.01;88.95
76590;BME280;65471;55.908;37.880;2023-04-03T03:53:18;99607.25;;;4.01;88.97
76590;BME280;65471;55.908;37.880;2023-04-03T03:55:45;99598.41;;;4.01;89.26
76590;BME280;65471;55.908;37.880;2023-04-03T03:58:15;99604.56;;;4.01;89.45
76590;BME280;65471;55.908;37.880;2023-04-03T04:00:41;99594.25;;;3.98;89.39
76590;BME280;65471;55.908;37.880;2023-04-03T04:03:08;99608.25;;;4.00;89.33
76590;BME280;65471;55.908;37.880;2023-04-03T04:05:35;99605.41;;;4.02;89.39
76590;BME280;65471;55.908;37.880;2023-04-03T04:08:02;99602.53;;;4.03;89.44
76590;BME280;65471;55.908;37.880;2023-04-03T04:10:29;99588.13;;;4.04;89.03
76590;BME280;65471;55.908;37.880;2023-04-03T04:12:56;99593.94;;;4.08;89.17
76590;BME280;65471;55.908;37.880;2023-04-03T04:15:24;99595.22;;;4.12;89.16
76590;BME280;65471;55.908;37.880;2023-04-03T04:17:52;99600.97;;;4.15;89.25
76590;BME280;65471;55.908;37.880;2023-04-03T04:20:20;99599.31;;;4.14;89.20
76590;BME280;65471;55.908;37.880;2023-04-03T04:22:47;99594.81;;;4.15;89.62
76590;BME280;65471;55.908;37.880;2023-04-03T04:25:13;99600.78;;;4.17;89.51
76590;BME280;65471;55.908;37.880;2023-04-03T04:27:40;99607.41;;;4.21;89.20
76590;BME280;65471;55.908;37.880;2023-04-03T04:30:08;99608.47;;;4.27;89.23
76590;BME280;65471;55.908;37.880;2023-04-03T04:32:35;99617.13;;;4.29;89.62
76590;BME280;65471;55.908;37.880;2023-04-03T04:35:02;99617.38;;;4.34;89.08
76590;BME280;65471;55.908;37.880;2023-04-03T04:37:30;99614.31;;;4.37;89.45
76590;BME280;65471;55.908;37.880;2023-04-03T04:39:57;99610.88;;;4.43;89.63
76590;BME280;65471;55.908;37.880;2023-04-03T04:42:24;99612.75;;;4.49;89.39
76590;BME280;65471;55.908;37.880;2023-04-03T04:44:51;99614.03;;;4.54;89.20
76590;BME280;65471;55.908;37.880;2023-04-03T04:47:17;99616.34;;;4.63;89.50
76590;BME280;65471;55.908;37.880;2023-04-03T04:49:44;99609.19;;;4.71;89.14
76590;BME280;65471;55.908;37.880;2023-04-03T04:52:14;99615.81;;;4.75;89.38
76590;BME280;65471;55.908;37.880;2023-04-03T04:54:41;99608.81;;;4.80;89.20
76590;BME280;65471;55.908;37.880;2023-04-03T04:57:08;99608.63;;;4.89;89.55
76590;BME280;65471;55.908;37.880;2023-04-03T04:59:35;99614.84;;;4.96;89.12
76590;BME280;65471;55.908;37.880;2023-04-03T05:02:01;99613.22;;;5.01;88.94
76590;BME280;65471;55.908;37.880;2023-04-03T05:04:28;99607.72;;;5.10;89.16
76590;BME280;65471;55.908;37.880;2023-04-03T05:06:55;99621.97;;;5.17;89.23
76590;BME280;65471;55.908;37.880;2023-04-03T05:09:22;99605.72;;;5.25;89.11
76590;BME280;65471;55.908;37.880;2023-04-03T05:11:49;99608.81;;;5.35;89.04
76590;BME280;65471;55.908;37.880;2023-04-03T05:14:16;99600.84;;;5.49;88.92
76590;BME280;65471;55.908;37.880;2023-04-03T05:16:43;99602.94;;;5.60;88.92
76590;BME280;65471;55.908;37.880;2023-04-03T05:19:10;99609.13;;;5.74;88.78
76590;BME280;65471;55.908;37.880;2023-04-03T05:21:37;99611.19;;;5.85;88.64
76590;BME280;65471;55.908;37.880;2023-04-03T05:24:04;99607.91;;;5.97;88.55
76590;BME280;65471;55.908;37.880;2023-04-03T05:26:31;99603.41;;;6.04;88.31
76590;BME280;65471;55.908;37.880;2023-04-03T05:28:58;99601.16;;;6.14;88.31
76590;BME280;65471;55.908;37.880;2023-04-03T05:31:25;99599.06;;;6.30;88.06
76590;BME280;65471;55.908;37.880;2023-04-03T05:33:52;99602.16;;;6.40;87.86
76590;BME280;65471;55.908;37.880;2023-04-03T05:36:19;99610.63;;;6.50;87.45
76590;BME280;65471;55.908;37.880;2023-04-03T05:38:46;99607.06;;;6.56;87.30
76590;BME280;65471;55.908;37.880;2023-04-03T05:41:14;99607.28;;;6.62;87.22
76590;BME280;65471;55.908;37.880;2023-04-03T05:43:41;99605.63;;;6.67;86.87
76590;BME280;65471;55.908;37.880;2023-04-03T05:46:11;99609.72;;;6.77;86.40
76590;BME280;65471;55.908;37.880;2023-04-03T05:48:38;99615.91;;;6.84;86.56
76590;BME280;65471;55.908;37.880;2023-04-03T05:51:07;99610.13;;;6.87;86.53
76590;BME280;65471;55.908;37.880;2023-04-03T05:53:39;99611.53;;;6.89;86.06
76590;BME280;65471;55.908;37.880;2023-04-03T05:56:07;99615.66;;;6.92;86.13
76590;BME280;65471;55.908;37.880;2023-04-03T05:58:34;99607.59;;;6.99;85.79
76590;BME280;65471;55.908;37.880;2023-04-03T06:01:01;99614.59;;;7.06;85.67
76590;BME280;65471;55.908;37.880;2023-04-03T06:03:28;99616.44;;;7.13;85.30
76590;BME280;65471;55.908;37.880;2023-04-03T06:05:55;99611.66;;;7.21;85.39
76590;BME280;65471;55.908;37.880;2023-04-03T06:08:22;99615.06;;;7.35;84.86
76590;BME280;65471;55.908;37.880;2023-04-03T06:10:50;99620.00;;;7.45;84.31
76590;BME280;65471;55.908;37.880;2023-04-03T06:13:17;99629.06;;;7.51;84.48
76590;BME280;65471;55.908;37.880;2023-04-03T06:15:44;99630.50;;;7.60;84.30
76590;BME280;65471;55.908;37.880;2023-04-03T06:18:11;99632.31;;;7.66;83.95
76590;BME280;65471;55.908;37.880;2023-04-03T06:20:38;99634.97;;;7.73;84.07
76590;BME280;65471;55.908;37.880;2023-04-03T06:23:05;99640.50;;;7.78;83.75
76590;BME280;65471;55.908;37.880;2023-04-03T06:25:34;99637.75;;;7.91;82.63
76590;BME280;65471;55.908;37.880;2023-04-03T06:28:01;99634.94;;;8.05;81.02
76590;BME280;65471;55.908;37.880;2023-04-03T06:30:28;99635.44;;;8.20;79.44
76590;BME280;65471;55.908;37.880;2023-04-03T06:32:55;99636.41;;;8.33;79.46
76590;BME280;65471;55.908;37.880;2023-04-03T06:35:23;99636.72;;;8.43;78.60
76590;BME280;65471;55.908;37.880;2023-04-03T06:37:50;99639.75;;;8.53;77.47
76590;BME280;65471;55.908;37.880;2023-04-03T06:40:21;99640.97;;;8.57;77.47
76590;BME280;65471;55.908;37.880;2023-04-03T06:42:49;99642.00;;;8.56;77.68
76590;BME280;65471;55.908;37.880;2023-04-03T06:45:17;99628.53;;;8.56;78.20
76590;BME280;65471;55.908;37.880;2023-04-03T06:47:43;99635.97;;;8.61;77.51
76590;BME280;65471;55.908;37.880;2023-04-03T06:50:12;99635.75;;;8.62;77.60
76590;BME280;65471;55.908;37.880;2023-04-03T06:52:40;99632.44;;;8.60;77.73
76590;BME280;65471;55.908;37.880;2023-04-03T06:55:08;99639.03;;;8.64;77.56
76590;BME280;65471;55.908;37.880;2023-04-03T06:57:36;99641.28;;;8.68;77.57
76590;BME280;65471;55.908;37.880;2023-04-03T07:00:05;99642.03;;;8.75;75.86
76590;BME280;65471;55.908;37.880;2023-04-03T07:02:32;99634.69;;;8.82;75.96
76590;BME280;65471;55.908;37.880;2023-04-03T07:04:59;99641.91;;;8.88;75.60
76590;BME280;65471;55.908;37.880;2023-04-03T07:07:26;99636.66;;;8.93;75.63
76590;BME280;65471;55.908;37.880;2023-04-03T07:09:53;99645.34;;;8.95;75.31
76590;BME280;65471;55.908;37.880;2023-04-03T07:12:20;99637.28;;;8.95;75.46
76590;BME280;65471;55.908;37.880;2023-04-03T07:14:47;99641.97;;;9.00;75.43
76590;BME280;65471;55.908;37.880;2023-04-03T07:17:14;99641.69;;;9.08;75.14
76590;BME280;65471;55.908;37.880;2023-04-03T07:19:40;99645.94;;;9.16;75.06
76590;BME280;65471;55.908;37.880;2023-04-03T07:22:07;99633.19;;;9.23;74.45
76590;BME280;65471;55.908;37.880;2023-04-03T07:24:34;99638.91;;;9.33;74.86
76590;BME280;65471;55.908;37.880;2023-04-03T07:27:01;99635.66;;;9.43;74.04
76590;BME280;65471;55.908;37.880;2023-04-03T07:29:29;99648.00;;;9.51;74.20
76590;BME280;65471;55.908;37.880;2023-04-03T07:31:56;99651.22;;;9.60;73.56
76590;BME280;65471;55.908;37.880;2023-04-03T07:34:23;99650.06;;;9.67;73.58
76590;BME280;65471;55.908;37.880;2023-04-03T07:36:50;99650.22;;;9.73;73.31
76590;BME280;65471;55.908;37.880;2023-04-03T07:39:17;99654.03;;;9.83;73.13
76590;BME280;65471;55.908;37.880;2023-04-03T07:41:44;99645.81;;;9.90;73.07
76590;BME280;65471;55.908;37.880;2023-04-03T07:44:11;99655.94;;;9.95;72.73
76590;BME280;65471;55.908;37.880;2023-04-03T07:46:37;99657.09;;;9.99;72.45
76590;BME280;65471;55.908;37.880;2023-04-03T07:49:05;99651.03;;;10.04;72.18
76590;BME280;65471;55.908;37.880;2023-04-03T07:51:32;99649.50;;;10.08;72.08
76590;BME280;65471;55.908;37.880;2023-04-03T07:53:59;99655.50;;;10.22;70.46
76590;BME280;65471;55.908;37.880;2023-04-03T07:56:26;99652.41;;;10.36;70.34
76590;BME280;65471;55.908;37.880;2023-04-03T07:58:52;99656.16;;;10.47;70.08
76590;BME280;65471;55.908;37.880;2023-04-03T08:01:20;99653.47;;;10.59;69.37
76590;BME280;65471;55.908;37.880;2023-04-03T08:03:47;99650.44;;;10.67;69.52
76590;BME280;65471;55.908;37.880;2023-04-03T08:06:14;99649.94;;;10.70;69.43
76590;BME280;65471;55.908;37.880;2023-04-03T08:08:45;99652.06;;;10.80;69.28
76590;BME280;65471;55.908;37.880;2023-04-03T08:11:12;99645.47;;;10.88;69.13
76590;BME280;65471;55.908;37.880;2023-04-03T08:13:39;99657.94;;;10.89;69.37
76590;BME280;65471;55.908;37.880;2023-04-03T08:16:17;99653.81;;;10.86;69.20
76590;BME280;65471;55.908;37.880;2023-04-03T08:18:44;99651.94;;;10.99;68.80
76590;BME280;65471;55.908;37.880;2023-04-03T08:21:12;99644.72;;;11.16;68.08
76590;BME280;65471;55.908;37.880;2023-04-03T08:23:40;99641.72;;;11.30;67.80
76590;BME280;65471;55.908;37.880;2023-04-03T08:26:13;99646.44;;;11.34;67.43
76590;BME280;65471;55.908;37.880;2023-04-03T08:28:40;99642.28;;;11.44;66.78
76590;BME280;65471;55.908;37.880;2023-04-03T08:31:11;99649.53;;;11.55;65.84
76590;BME280;65471;55.908;37.880;2023-04-03T08:33:39;99652.00;;;11.56;65.81
76590;BME280;65471;55.908;37.880;2023-04-03T08:36:07;99645.16;;;11.66;65.55
76590;BME280;65471;55.908;37.880;2023-04-03T08:38:42;99657.47;;;11.73;65.44
76590;BME280;65471;55.908;37.880;2023-04-03T08:41:20;99654.03;;;11.78;65.29
76590;BME280;65471;55.908;37.880;2023-04-03T08:49:52;99665.97;;;11.65;65.08
76590;BME280;65471;55.908;37.880;2023-04-03T08:54:56;99667.97;;;11.70;64.67
76590;BME280;65471;55.908;37.880;2023-04-03T08:57:33;99667.97;;;11.70;64.98
76590;BME280;65471;55.908;37.880;2023-04-03T09:00:06;99675.50;;;11.68;65.08
76590;BME280;65471;55.908;37.880;2023-04-03T09:02:41;99667.03;;;11.64;65.35
76590;BME280;65471;55.908;37.880;2023-04-03T09:05:18;99679.28;;;11.67;64.72
76590;BME280;65471;55.908;37.880;2023-04-03T09:10:28;99687.84;;;11.75;64.54
76590;BME280;65471;55.908;37.880;2023-04-03T09:15:40;99681.78;;;11.85;64.79
76590;BME280;65471;55.908;37.880;2023-04-03T09:23:53;99686.50;;;12.19;63.21
76590;BME280;65471;55.908;37.880;2023-04-03T09:28:59;99681.00;;;12.48;62.02
76590;BME280;65471;55.908;37.880;2023-04-03T09:31:35;99691.47;;;12.56;62.28
76590;BME280;65471;55.908;37.880;2023-04-03T09:36:57;99688.50;;;12.57;62.60
76590;BME280;65471;55.908;37.880;2023-04-03T09:39:27;99692.59;;;12.60;61.82
76590;BME280;65471;55.908;37.880;2023-04-03T09:41:57;99695.06;;;12.62;61.90
76590;BME280;65471;55.908;37.880;2023-04-03T09:44:26;99692.75;;;12.70;60.67
76590;BME280;65471;55.908;37.880;2023-04-03T09:46:54;99695.06;;;12.78;60.30
76590;BME280;65471;55.908;37.880;2023-04-03T09:49:21;99693.56;;;12.88;60.55
76590;BME280;65471;55.908;37.880;2023-04-03T09:51:47;99697.56;;;13.02;60.25
76590;BME280;65471;55.908;37.880;2023-04-03T09:54:37;99690.06;;;13.09;59.89
76590;BME280;65471;55.908;37.880;2023-04-03T09:57:13;99700.44;;;13.12;59.87
76590;BME280;65471;55.908;37.880;2023-04-03T10:00:01;99689.41;;;13.02;59.37
76590;BME280;65471;55.908;37.880;2023-04-03T10:02:35;99697.81;;;13.01;59.50
76590;BME280;65471;55.908;37.880;2023-04-03T10:05:04;99692.88;;;12.98;57.77
76590;BME280;65471;55.908;37.880;2023-04-03T10:07:50;99698.56;;;12.96;58.41
76590;BME280;65471;55.908;37.880;2023-04-03T10:10:29;99694.63;;;12.87;58.77
76590;BME280;65471;55.908;37.880;2023-04-03T10:13:15;99693.72;;;12.81;58.74
76590;BME280;65471;55.908;37.880;2023-04-03T10:15:59;99700.00;;;12.82;59.42
76590;BME280;65471;55.908;37.880;2023-04-03T10:18:35;99694.72;;;12.75;60.21
76590;BME280;65471;55.908;37.880;2023-04-03T10:21:13;99693.97;;;12.80;60.01
76590;BME280;65471;55.908;37.880;2023-04-03T10:32:31;99703.31;;;13.06;58.64
76590;BME280;65471;55.908;37.880;2023-04-03T10:35:28;99694.59;;;13.04;58.77
76590;BME280;65471;55.908;37.880;2023-04-03T10:46:49;99699.97;;;12.99;58.88
76590;BME280;65471;55.908;37.880;2023-04-03T10:52:20;99698.38;;;13.20;57.50
76590;BME280;65471;55.908;37.880;2023-04-03T10:57:25;99700.38;;;13.29;55.76
76590;BME280;65471;55.908;37.880;2023-04-03T10:59:58;99704.97;;;13.29;55.70
76590;BME280;65471;55.908;37.880;2023-04-03T11:02:39;99708.22;;;13.26;54.52
76590;BME280;65471;55.908;37.880;2023-04-03T11:05:21;99711.44;;;13.23;53.88
76590;BME280;65471;55.908;37.880;2023-04-03T11:07:53;99699.16;;;13.20;52.96
76590;BME280;65471;55.908;37.880;2023-04-03T11:10:23;99705.19;;;13.05;53.57
76590;BME280;65471;55.908;37.880;2023-04-03T11:13:43;99711.06;;;12.97;55.24
76590;BME280;65471;55.908;37.880;2023-04-03T11:15:44;99701.53;;;12.94;55.97
76590;BME280;65471;55.908;37.880;2023-04-03T11:18:18;99693.69;;;12.98;54.78
76590;BME280;65471;55.908;37.880;2023-04-03T11:21:05;99695.34;;;12.99;55.88
76590;BME280;65471;55.908;37.880;2023-04-03T11:23:37;99698.81;;;12.94;55.85
76590;BME280;65471;55.908;37.880;2023-04-03T11:26:18;99692.81;;;12.92;54.32
76590;BME280;65471;55.908;37.880;2023-04-03T11:28:53;99694.16;;;12.90;55.24
76590;BME280;65471;55.908;37.880;2023-04-03T11:34:03;99685.84;;;12.80;55.98
76590;BME280;65471;55.908;37.880;2023-04-03T11:36:39;99702.63;;;12.76;56.17
76590;BME280;65471;55.908;37.880;2023-04-03T11:41:47;99695.22;;;12.72;56.10
76590;BME280;65471;55.908;37.880;2023-04-03T11:44:32;99684.28;;;12.67;56.56
76590;BME280;65471;55.908;37.880;2023-04-03T11:47:01;99688.81;;;12.61;57.12
76590;BME280;65471;55.908;37.880;2023-04-03T12:16:29;99687.69;;;12.40;58.55
76590;BME280;65471;55.908;37.880;2023-04-03T12:19:43;99684.78;;;12.30;59.26
76590;BME280;65471;55.908;37.880;2023-04-03T12:24:29;99693.53;;;12.20;59.36
76590;BME280;65471;55.908;37.880;2023-04-03T12:41:32;99679.38;;;11.72;60.83
76590;BME280;65471;55.908;37.880;2023-04-03T12:46:54;99690.72;;;11.57;61.47
76590;BME280;65471;55.908;37.880;2023-04-03T12:49:42;99692.50;;;11.51;62.04
76590;BME280;65471;55.908;37.880;2023-04-03T12:52:54;99689.84;;;11.39;62.31
76590;BME280;65471;55.908;37.880;2023-04-03T12:55:25;99694.09;;;11.35;62.44
76590;BME280;65471;55.908;37.880;2023-04-03T12:57:53;99690.44;;;11.30;63.12
76590;BME280;65471;55.908;37.880;2023-04-03T13:00:30;99693.50;;;11.21;63.61
76590;BME280;65471;55.908;37.880;2023-04-03T13:03:03;99699.06;;;11.15;64.05
76590;BME280;65471;55.908;37.880;2023-04-03T13:05:32;99698.38;;;11.08;64.58
76590;BME280;65471;55.908;37.880;2023-04-03T13:08:10;99700.84;;;10.97;64.99
76590;BME280;65471;55.908;37.880;2023-04-03T13:11:14;99697.56;;;10.83;65.78
76590;BME280;65471;55.908;37.880;2023-04-03T13:13:57;99696.03;;;10.76;65.88
76590;BME280;65471;55.908;37.880;2023-04-03T13:16:25;99699.91;;;10.68;66.58
76590;BME280;65471;55.908;37.880;2023-04-03T13:18:54;99700.84;;;10.62;66.83
76590;BME280;65471;55.908;37.880;2023-04-03T13:21:39;99704.72;;;10.54;67.52
76590;BME280;65471;55.908;37.880;2023-04-03T13:24:06;99696.03;;;10.52;68.16
76590;BME280;65471;55.908;37.880;2023-04-03T13:26:41;99704.47;;;10.44;68.52
76590;BME280;65471;55.908;37.880;2023-04-03T13:29:28;99702.91;;;10.36;69.05
76590;BME280;65471;55.908;37.880;2023-04-03T13:31:59;99707.34;;;10.30;69.47
76590;BME280;65471;55.908;37.880;2023-04-03T13:34:38;99709.31;;;10.23;69.76
76590;BME280;65471;55.908;37.880;2023-04-03T13:37:19;99720.81;;;10.18;70.19
76590;BME280;65471;55.908;37.880;2023-04-03T13:40:14;99709.53;;;10.10;70.71
76590;BME280;65471;55.908;37.880;2023-04-03T13:42:41;99716.66;;;10.04;71.33
76590;BME280;65471;55.908;37.880;2023-04-03T13:47:42;99716.88;;;9.91;71.69
76590;BME280;65471;55.908;37.880;2023-04-03T13:50:22;99709.41;;;9.86;72.39
76590;BME280;65471;55.908;37.880;2023-04-03T13:53:08;99707.78;;;9.85;72.79
76590;BME280;65471;55.908;37.880;2023-04-03T13:55:55;99710.72;;;9.83;72.52
76590;BME280;65471;55.908;37.880;2023-04-03T13:58:27;99720.47;;;9.84;72.80
76590;BME280;65471;55.908;37.880;2023-04-03T14:03:57;99713.19;;;9.85;73.53
76590;BME280;65471;55.908;37.880;2023-04-03T14:06:25;99711.31;;;9.85;73.75
76590;BME280;65471;55.908;37.880;2023-04-03T14:08:52;99718.38;;;9.87;73.35
76590;BME280;65471;55.908;37.880;2023-04-03T14:11:22;99716.63;;;9.92;73.12
76590;BME280;65471;55.908;37.880;2023-04-03T14:13:50;99715.13;;;9.96;72.92
76590;BME280;65471;55.908;37.880;2023-04-03T14:16:20;99711.50;;;10.02;73.43
76590;BME280;65471;55.908;37.880;2023-04-03T14:18:49;99719.22;;;9.99;73.10
76590;BME280;65471;55.908;37.880;2023-04-03T14:21:17;99715.91;;;9.85;73.94
76590;BME280;65471;55.908;37.880;2023-04-03T14:23:44;99715.91;;;9.85;74.17
76590;BME280;65471;55.908;37.880;2023-04-03T14:26:13;99712.72;;;9.88;73.90
76590;BME280;65471;55.908;37.880;2023-04-03T14:28:44;99712.28;;;9.91;74.04
76590;BME280;65471;55.908;37.880;2023-04-03T14:31:13;99721.66;;;9.89;73.99
76590;BME280;65471;55.908;37.880;2023-04-03T14:33:40;99721.88;;;9.87;74.30
76590;BME280;65471;55.908;37.880;2023-04-03T14:36:15;99715.06;;;9.84;74.32
76590;BME280;65471;55.908;37.880;2023-04-03T14:38:44;99719.50;;;9.79;74.76
76590;BME280;65471;55.908;37.880;2023-04-03T14:41:17;99728.06;;;9.76;74.83
76590;BME280;65471;55.908;37.880;2023-04-03T14:43:45;99725.22;;;9.71;75.27
76590;BME280;65471;55.908;37.880;2023-04-03T14:46:19;99729.19;;;9.68;75.58
76590;BME280;65471;55.908;37.880;2023-04-03T14:48:49;99730.47;;;9.65;75.24
76590;BME280;65471;55.908;37.880;2023-04-03T14:51:16;99730.09;;;9.62;75.49
76590;BME280;65471;55.908;37.880;2023-04-03T14:53:44;99729.50;;;9.60;75.52
76590;BME280;65471;55.908;37.880;2023-04-03T14:58:45;99727.09;;;9.52;76.10
76590;BME280;65471;55.908;37.880;2023-04-03T15:01:17;99727.31;;;9.50;75.85
76590;BME280;65471;55.908;37.880;2023-04-03T15:03:43;99732.38;;;9.46;76.44
76590;BME280;65471;55.908;37.880;2023-04-03T15:06:13;99728.47;;;9.42;76.49
76590;BME280;65471;55.908;37.880;2023-04-03T15:08:41;99730.78;;;9.39;76.65
76590;BME280;65471;55.908;37.880;2023-04-03T15:11:09;99718.78;;;9.35;76.66